createdAt,value
2022-09-07T00:00:02.720Z,0.00
2022-09-07T00:01:02.650Z,0.00
2022-09-07T00:02:02.574Z,0.00
2022-09-07T00:03:02.555Z,0.00
2022-09-07T00:04:02.464Z,0.00
2022-09-07T00:05:02.355Z,0.00
2022-09-07T00:06:02.274Z,0.00
2022-09-07T00:07:02.202Z,0.00
2022-09-07T00:08:02.129Z,0.00
2022-09-07T00:09:02.049Z,0.00
2022-09-07T00:10:01.975Z,0.00
2022-09-07T00:11:01.897Z,0.00
2022-09-07T00:12:01.825Z,0.00
2022-09-07T00:13:01.753Z,0.00
2022-09-07T00:14:01.674Z,0.00
2022-09-07T00:15:01.599Z,0.00
2022-09-07T00:16:01.546Z,0.00
2022-09-07T00:17:01.449Z,0.00
2022-09-07T00:18:01.376Z,0.00
2022-09-07T00:19:01.301Z,0.00
2022-09-07T00:20:01.222Z,0.00
2022-09-07T00:21:01.148Z,0.00
2022-09-07T00:22:01.072Z,0.00
2022-09-07T00:23:00.999Z,0.00
2022-09-07T00:24:00.922Z,0.00
2022-09-07T00:25:00.846Z,0.00
2022-09-07T00:26:00.772Z,0.00
2022-09-07T00:27:00.698Z,0.00
2022-09-07T00:28:00.623Z,0.00
2022-09-07T00:29:00.542Z,0.00
2022-09-07T00:30:00.478Z,0.00
2022-09-07T00:31:00.454Z,0.00
2022-09-07T00:32:00.324Z,0.00
2022-09-07T00:33:00.248Z,0.00
2022-09-07T00:34:00.169Z,0.00
2022-09-07T00:35:00.122Z,0.00
2022-09-07T00:36:00.022Z,0.00
2022-09-07T00:36:59.946Z,0.00
2022-09-07T00:37:59.871Z,0.00
2022-09-07T00:38:59.793Z,0.00
2022-09-07T00:39:59.736Z,0.00
2022-09-07T00:40:59.645Z,0.00
2022-09-07T00:41:59.575Z,0.00
2022-09-07T00:42:59.496Z,0.00
2022-09-07T00:43:59.420Z,0.00
2022-09-07T00:44:59.344Z,0.00
2022-09-07T00:45:59.269Z,0.00
2022-09-07T00:46:59.241Z,0.00
2022-09-07T00:47:59.119Z,0.00
2022-09-07T00:48:59.054Z,0.00
2022-09-07T00:49:58.969Z,0.00
2022-09-07T00:50:58.896Z,0.00
2022-09-07T00:51:58.817Z,0.00
2022-09-07T00:52:58.746Z,0.00
2022-09-07T00:53:58.664Z,0.00
2022-09-07T00:54:58.590Z,0.00
2022-09-07T00:55:58.523Z,0.00
2022-09-07T00:56:58.448Z,0.00
2022-09-07T00:57:58.371Z,0.00
2022-09-07T00:58:58.291Z,0.00
2022-09-07T00:59:58.215Z,0.00
2022-09-07T01:00:58.139Z,0.00
2022-09-07T01:01:58.235Z,0.00
2022-09-07T01:02:58.078Z,0.00
2022-09-07T01:03:57.915Z,0.00
2022-09-07T01:04:57.839Z,0.00
2022-09-07T01:05:57.766Z,0.00
2022-09-07T01:06:57.689Z,0.00
2022-09-07T01:07:57.613Z,0.00
2022-09-07T01:08:57.539Z,0.00
2022-09-07T01:09:57.464Z,0.00
2022-09-07T01:10:57.384Z,0.00
2022-09-07T01:11:57.307Z,0.00
2022-09-07T01:12:57.244Z,0.00
2022-09-07T01:13:57.162Z,0.00
2022-09-07T01:14:57.084Z,0.00
2022-09-07T01:15:57.056Z,0.00
2022-09-07T01:16:56.931Z,0.00
2022-09-07T01:17:56.860Z,0.00
2022-09-07T01:18:56.782Z,0.00
2022-09-07T01:19:56.707Z,0.00
2022-09-07T01:20:56.639Z,0.00
2022-09-07T01:21:56.555Z,0.00
2022-09-07T01:22:56.482Z,0.00
2022-09-07T01:23:56.409Z,0.00
2022-09-07T01:24:56.331Z,0.00
2022-09-07T01:25:56.255Z,0.00
2022-09-07T01:26:56.177Z,0.00
2022-09-07T01:27:56.108Z,0.00
2022-09-07T01:28:56.030Z,0.00
2022-09-07T01:29:55.955Z,0.00
2022-09-07T01:30:55.969Z,0.00
2022-09-07T01:31:55.803Z,0.00
2022-09-07T01:32:55.731Z,0.00
2022-09-07T01:33:55.654Z,0.00
2022-09-07T01:34:55.588Z,0.00
2022-09-07T01:35:55.505Z,0.00
2022-09-07T01:36:55.426Z,0.00
2022-09-07T01:37:57.202Z,0.00
2022-09-07T01:38:55.282Z,0.00
2022-09-07T01:39:55.269Z,0.00
2022-09-07T01:40:55.138Z,0.00
2022-09-07T01:41:55.051Z,0.00
2022-09-07T01:42:54.981Z,0.00
2022-09-07T01:43:54.899Z,0.00
2022-09-07T01:44:54.826Z,0.00
2022-09-07T01:45:54.785Z,0.00
2022-09-07T01:46:54.675Z,0.00
2022-09-07T01:47:54.602Z,0.00
2022-09-07T01:48:54.520Z,0.00
2022-09-07T01:49:54.450Z,0.00
2022-09-07T01:50:54.373Z,0.00
2022-09-07T01:51:54.298Z,0.00
2022-09-07T01:52:54.226Z,0.00
2022-09-07T01:53:54.148Z,0.00
2022-09-07T01:54:54.071Z,0.00
2022-09-07T01:55:53.993Z,0.00
2022-09-07T01:56:53.919Z,0.00
2022-09-07T01:57:53.845Z,0.00
2022-09-07T01:58:53.772Z,0.00
2022-09-07T01:59:53.696Z,0.00
2022-09-07T02:00:53.632Z,0.00
2022-09-07T02:01:53.584Z,0.00
2022-09-07T02:02:53.526Z,0.00
2022-09-07T02:03:53.392Z,0.00
2022-09-07T02:04:53.315Z,0.00
2022-09-07T02:05:53.239Z,0.00
2022-09-07T02:06:53.168Z,0.00
2022-09-07T02:07:53.093Z,0.00
2022-09-07T02:08:53.017Z,0.00
2022-09-07T02:09:52.945Z,0.00
2022-09-07T02:10:52.866Z,0.00
2022-09-07T02:11:52.787Z,0.00
2022-09-07T02:12:52.709Z,0.00
2022-09-07T02:13:52.635Z,0.00
2022-09-07T02:14:52.974Z,0.00
2022-09-07T02:15:52.539Z,0.00
2022-09-07T02:16:52.413Z,0.00
2022-09-07T02:17:52.334Z,0.00
2022-09-07T02:18:52.261Z,0.00
2022-09-07T02:19:52.183Z,0.00
2022-09-07T02:20:52.109Z,0.00
2022-09-07T02:21:52.036Z,0.00
2022-09-07T02:22:51.962Z,0.00
2022-09-07T02:23:51.879Z,0.00
2022-09-07T02:24:51.807Z,0.00
2022-09-07T02:25:51.732Z,0.00
2022-09-07T02:26:51.656Z,0.00
2022-09-07T02:27:51.582Z,0.00
2022-09-07T02:28:51.506Z,0.00
2022-09-07T02:29:51.429Z,0.00
2022-09-07T02:30:51.395Z,0.00
2022-09-07T02:31:51.275Z,0.00
2022-09-07T02:32:51.201Z,0.00
2022-09-07T02:33:51.127Z,0.00
2022-09-07T02:34:51.053Z,0.00
2022-09-07T02:35:50.978Z,0.00
2022-09-07T02:36:50.903Z,0.00
2022-09-07T02:37:50.821Z,0.00
2022-09-07T02:38:50.749Z,0.00
2022-09-07T02:39:50.715Z,0.00
2022-09-07T02:40:50.596Z,0.00
2022-09-07T02:41:50.523Z,0.00
2022-09-07T02:42:50.449Z,0.00
2022-09-07T02:43:50.371Z,0.00
2022-09-07T02:44:50.296Z,0.00
2022-09-07T02:45:50.249Z,0.00
2022-09-07T02:46:50.146Z,0.00
2022-09-07T02:47:50.068Z,0.00
2022-09-07T02:48:49.992Z,0.00
2022-09-07T02:49:49.921Z,0.00
2022-09-07T02:50:49.841Z,0.00
2022-09-07T02:51:49.770Z,0.00
2022-09-07T02:52:49.694Z,0.00
2022-09-07T02:53:49.614Z,0.00
2022-09-07T02:54:49.538Z,0.00
2022-09-07T02:55:49.462Z,0.00
2022-09-07T02:56:49.388Z,0.00
2022-09-07T02:57:49.315Z,0.00
2022-09-07T02:58:49.236Z,0.00
2022-09-07T02:59:49.166Z,0.00
2022-09-07T03:00:49.087Z,0.00
2022-09-07T03:01:49.054Z,0.00
2022-09-07T03:02:49.004Z,0.00
2022-09-07T03:03:48.857Z,0.00
2022-09-07T03:04:48.786Z,0.00
2022-09-07T03:05:48.706Z,0.00
2022-09-07T03:06:48.638Z,0.00
2022-09-07T03:07:48.560Z,0.00
2022-09-07T03:08:48.487Z,0.00
2022-09-07T03:09:48.435Z,0.00
2022-09-07T03:10:48.334Z,0.00
2022-09-07T03:11:48.258Z,0.00
2022-09-07T03:12:48.207Z,0.00
2022-09-07T03:13:48.105Z,0.00
2022-09-07T03:14:48.030Z,0.00
2022-09-07T03:15:51.305Z,0.00
2022-09-07T03:16:47.881Z,0.00
2022-09-07T03:17:47.804Z,0.00
2022-09-07T03:18:47.728Z,0.00
2022-09-07T03:19:47.652Z,0.00
2022-09-07T03:20:47.577Z,0.00
2022-09-07T03:21:47.499Z,0.00
2022-09-07T03:22:47.427Z,0.00
2022-09-07T03:23:51.610Z,0.00
2022-09-07T03:24:47.273Z,0.00
2022-09-07T03:25:47.199Z,0.00
2022-09-07T03:26:47.124Z,0.00
2022-09-07T03:27:47.052Z,0.00
2022-09-07T03:28:46.968Z,0.00
2022-09-07T03:29:46.899Z,0.00
2022-09-07T03:30:46.850Z,0.00
2022-09-07T03:31:46.748Z,0.00
2022-09-07T03:32:46.672Z,0.00
2022-09-07T03:33:46.594Z,0.00
2022-09-07T03:34:46.519Z,0.00
2022-09-07T03:35:46.449Z,0.00
2022-09-07T03:36:46.365Z,0.00
2022-09-07T03:37:46.295Z,0.00
2022-09-07T03:38:46.220Z,0.00
2022-09-07T03:39:46.203Z,0.00
2022-09-07T03:40:46.065Z,0.00
2022-09-07T03:41:45.986Z,0.00
2022-09-07T03:42:45.914Z,0.00
2022-09-07T03:43:45.838Z,0.00
2022-09-07T03:44:45.758Z,0.00
2022-09-07T03:45:45.710Z,0.00
2022-09-07T03:46:45.609Z,0.00
2022-09-07T03:47:45.538Z,0.00
2022-09-07T03:48:45.464Z,0.00
2022-09-07T03:49:45.388Z,0.00
2022-09-07T03:50:45.313Z,0.00
2022-09-07T03:51:45.234Z,0.00
2022-09-07T03:52:45.152Z,0.00
2022-09-07T03:53:45.080Z,0.00
2022-09-07T03:54:45.009Z,0.00
2022-09-07T03:55:44.929Z,0.00
2022-09-07T03:56:44.857Z,0.00
2022-09-07T03:57:44.788Z,0.00
2022-09-07T03:58:44.707Z,0.00
2022-09-07T03:59:44.633Z,0.00
2022-09-07T04:00:44.554Z,0.00
2022-09-07T04:01:44.541Z,0.00
2022-09-07T04:02:44.457Z,0.00
2022-09-07T04:03:44.333Z,0.00
2022-09-07T04:04:44.249Z,0.00
2022-09-07T04:05:44.179Z,0.00
2022-09-07T04:06:44.101Z,0.00
2022-09-07T04:07:44.024Z,0.00
2022-09-07T04:08:43.951Z,0.00
2022-09-07T04:09:43.875Z,0.00
2022-09-07T04:10:43.800Z,0.00
2022-09-07T04:11:43.722Z,0.00
2022-09-07T04:12:43.645Z,0.00
2022-09-07T04:13:43.569Z,0.00
2022-09-07T04:14:43.496Z,0.00
2022-09-07T04:15:43.420Z,0.00
2022-09-07T04:16:43.373Z,0.00
2022-09-07T04:17:43.268Z,0.00
2022-09-07T04:18:43.194Z,0.00
2022-09-07T04:19:43.117Z,0.00
2022-09-07T04:20:43.044Z,0.00
2022-09-07T04:21:42.974Z,0.00
2022-09-07T04:22:42.890Z,0.00
2022-09-07T04:23:42.814Z,0.00
2022-09-07T04:24:42.740Z,0.00
2022-09-07T04:25:42.663Z,0.00
2022-09-07T04:26:42.589Z,0.00
2022-09-07T04:27:42.515Z,0.00
2022-09-07T04:28:42.439Z,0.00
2022-09-07T04:29:42.366Z,0.00
2022-09-07T04:30:42.367Z,0.00
2022-09-07T04:31:42.216Z,0.00
2022-09-07T04:32:42.137Z,0.00
2022-09-07T04:33:42.060Z,0.00
2022-09-07T04:34:41.986Z,0.00
2022-09-07T04:35:41.912Z,0.00
2022-09-07T04:36:41.836Z,0.00
2022-09-07T04:37:41.756Z,0.00
2022-09-07T04:38:41.686Z,0.00
2022-09-07T04:39:41.659Z,0.00
2022-09-07T04:40:41.531Z,0.00
2022-09-07T04:41:41.461Z,0.00
2022-09-07T04:42:41.382Z,0.00
2022-09-07T04:43:41.307Z,0.00
2022-09-07T04:44:41.231Z,0.00
2022-09-07T04:45:41.207Z,0.00
2022-09-07T04:46:41.082Z,5.63
2022-09-07T04:47:40.999Z,5.63
2022-09-07T04:48:40.934Z,5.63
2022-09-07T04:49:40.853Z,5.63
2022-09-07T04:50:40.779Z,5.63
2022-09-07T04:51:40.698Z,5.63
2022-09-07T04:52:40.623Z,5.63
2022-09-07T04:53:40.552Z,11.25
2022-09-07T04:54:40.476Z,11.25
2022-09-07T04:55:40.402Z,11.25
2022-09-07T04:56:40.325Z,11.25
2022-09-07T04:57:40.251Z,11.25
2022-09-07T04:58:40.171Z,11.25
2022-09-07T04:59:40.098Z,11.25
2022-09-07T05:00:40.024Z,11.25
2022-09-07T05:01:40.029Z,11.25
2022-09-07T05:02:39.904Z,16.88
2022-09-07T05:03:39.802Z,16.88
2022-09-07T05:04:39.720Z,16.88
2022-09-07T05:05:39.645Z,16.88
2022-09-07T05:06:39.572Z,11.25
2022-09-07T05:07:39.492Z,11.25
2022-09-07T05:08:39.421Z,11.25
2022-09-07T05:09:39.345Z,11.25
2022-09-07T05:10:39.274Z,11.25
2022-09-07T05:11:39.186Z,11.25
2022-09-07T05:12:39.121Z,11.25
2022-09-07T05:13:39.042Z,11.25
2022-09-07T05:14:38.970Z,11.25
2022-09-07T05:15:38.907Z,11.25
2022-09-07T05:16:38.850Z,11.25
2022-09-07T05:17:38.737Z,11.25
2022-09-07T05:18:38.668Z,11.25
2022-09-07T05:19:38.592Z,11.25
2022-09-07T05:20:38.515Z,16.88
2022-09-07T05:21:38.441Z,16.88
2022-09-07T05:22:38.364Z,16.88
2022-09-07T05:23:38.349Z,16.88
2022-09-07T05:24:38.217Z,16.88
2022-09-07T05:25:38.138Z,16.88
2022-09-07T05:26:38.107Z,16.88
2022-09-07T05:27:37.992Z,16.88
2022-09-07T05:28:37.913Z,16.88
2022-09-07T05:31:37.682Z,16.88
2022-09-07T05:32:37.605Z,22.50
2022-09-07T05:34:37.460Z,22.50
2022-09-07T05:35:37.385Z,22.50
2022-09-07T05:36:37.306Z,22.50
2022-09-07T05:37:37.236Z,22.50
2022-09-07T05:38:37.166Z,22.50
2022-09-07T05:39:37.165Z,22.50
2022-09-07T05:40:40.572Z,22.50
2022-09-07T05:41:36.929Z,22.50
2022-09-07T05:42:36.856Z,22.50
2022-09-07T05:43:37.147Z,22.50
2022-09-07T05:44:44.739Z,22.50
2022-09-07T05:45:36.682Z,22.50
2022-09-07T05:46:36.551Z,22.50
2022-09-07T05:47:36.477Z,28.13
2022-09-07T05:48:36.403Z,28.13
2022-09-07T05:49:36.330Z,28.13
2022-09-07T05:50:36.254Z,28.13
2022-09-07T05:51:36.174Z,28.13
2022-09-07T05:52:36.103Z,33.75
2022-09-07T05:53:36.030Z,33.75
2022-09-07T05:54:35.960Z,33.75
2022-09-07T05:55:35.882Z,33.75
2022-09-07T05:56:35.807Z,33.75
2022-09-07T05:57:35.730Z,33.75
2022-09-07T05:58:35.651Z,33.75
2022-09-07T05:59:35.581Z,33.75
2022-09-07T06:00:35.498Z,33.75
2022-09-07T06:01:35.430Z,33.75
2022-09-07T06:02:39.085Z,33.75
2022-09-07T06:03:35.337Z,33.75
2022-09-07T06:04:35.197Z,39.38
2022-09-07T06:05:35.123Z,39.38
2022-09-07T06:06:35.046Z,39.38
2022-09-07T06:07:34.978Z,39.38
2022-09-07T06:08:34.897Z,39.38
2022-09-07T06:09:35.465Z,39.38
2022-09-07T06:11:34.673Z,45.00
2022-09-07T06:12:34.599Z,45.00
2022-09-07T06:13:34.523Z,45.00
2022-09-07T06:14:34.449Z,45.00
2022-09-07T06:15:34.372Z,45.00
2022-09-07T06:16:34.386Z,45.00
2022-09-07T06:17:34.222Z,45.00
2022-09-07T06:18:34.150Z,45.00
2022-09-07T06:19:34.073Z,45.00
2022-09-07T06:20:33.996Z,45.00
2022-09-07T06:21:33.922Z,50.63
2022-09-07T06:22:33.847Z,50.63
2022-09-07T06:23:33.771Z,50.63
2022-09-07T06:24:33.698Z,56.25
2022-09-07T06:25:33.619Z,56.25
2022-09-07T06:26:33.543Z,56.25
2022-09-07T06:27:33.474Z,56.25
2022-09-07T06:28:33.394Z,50.63
2022-09-07T06:29:33.325Z,50.63
2022-09-07T06:30:33.243Z,56.25
2022-09-07T06:31:33.287Z,50.63
2022-09-07T06:33:33.171Z,50.63
2022-09-07T06:34:32.942Z,50.63
2022-09-07T06:35:32.865Z,50.63
2022-09-07T06:36:32.794Z,50.63
2022-09-07T06:37:32.721Z,50.63
2022-09-07T06:38:32.646Z,50.63
2022-09-07T06:39:32.589Z,56.25
2022-09-07T06:40:32.495Z,56.25
2022-09-07T06:42:32.344Z,56.25
2022-09-07T06:43:32.374Z,56.25
2022-09-07T06:44:32.197Z,50.63
2022-09-07T06:45:32.153Z,50.63
2022-09-07T06:47:31.970Z,50.63
2022-09-07T06:48:32.049Z,50.63
2022-09-07T06:49:31.825Z,45.00
2022-09-07T06:50:31.743Z,45.00
2022-09-07T06:51:31.665Z,45.00
2022-09-07T06:55:31.371Z,45.00
2022-09-07T06:56:31.296Z,45.00
2022-09-07T06:57:31.222Z,39.38
2022-09-07T06:58:31.244Z,39.38
2022-09-07T06:59:31.079Z,39.38
2022-09-07T07:00:31.000Z,39.38
2022-09-07T07:01:30.954Z,39.38
2022-09-07T07:02:30.851Z,39.38
2022-09-07T07:03:30.811Z,45.00
2022-09-07T07:04:30.696Z,45.00
2022-09-07T07:05:30.620Z,50.63
2022-09-07T07:06:30.549Z,50.63
2022-09-07T07:07:30.473Z,50.63
2022-09-07T07:08:30.529Z,56.25
2022-09-07T07:09:30.324Z,56.25
2022-09-07T07:10:30.249Z,56.25
2022-09-07T07:11:30.173Z,56.25
2022-09-07T07:12:51.085Z,56.25
2022-09-07T07:13:30.020Z,56.25
2022-09-07T07:14:33.725Z,61.88
2022-09-07T07:15:29.869Z,61.88
2022-09-07T07:16:29.888Z,61.88
2022-09-07T07:17:29.724Z,61.88
2022-09-07T07:18:29.646Z,61.88
2022-09-07T07:19:29.575Z,61.88
2022-09-07T07:20:29.495Z,61.88
2022-09-07T07:21:42.935Z,61.88
2022-09-07T07:22:46.022Z,67.50
2022-09-07T07:23:29.335Z,67.50
2022-09-07T07:24:29.202Z,61.88
2022-09-07T07:25:29.124Z,61.88
2022-09-07T07:26:29.049Z,61.88
2022-09-07T07:27:28.976Z,61.88
2022-09-07T07:29:28.828Z,56.25
2022-09-07T07:30:28.750Z,61.88
2022-09-07T07:31:28.676Z,73.13
2022-09-07T07:32:28.607Z,84.38
2022-09-07T07:33:28.528Z,90.00
2022-09-07T07:34:28.570Z,90.00
2022-09-07T07:35:28.379Z,90.00
2022-09-07T07:36:28.313Z,90.00
2022-09-07T07:37:28.464Z,101.25
2022-09-07T07:40:30.983Z,106.88
2022-09-07T07:42:27.860Z,106.88
2022-09-07T07:43:27.830Z,101.25
2022-09-07T07:44:27.712Z,90.00
2022-09-07T07:46:27.578Z,84.38
2022-09-07T07:47:27.497Z,84.38
2022-09-07T07:48:27.420Z,84.38
2022-09-07T07:49:27.340Z,84.38
2022-09-07T07:50:31.081Z,84.38
2022-09-07T07:51:27.249Z,90.00
2022-09-07T07:53:42.825Z,95.63
2022-09-07T07:54:26.965Z,95.63
2022-09-07T07:56:26.814Z,95.63
2022-09-07T07:57:26.748Z,95.63
2022-09-07T07:58:26.672Z,90.00
2022-09-07T07:59:26.590Z,90.00
2022-09-07T08:00:43.703Z,90.00
2022-09-07T08:01:26.495Z,95.63
2022-09-07T08:02:26.448Z,95.63
2022-09-07T08:03:26.415Z,101.25
2022-09-07T08:04:26.226Z,101.25
2022-09-07T08:05:26.154Z,106.88
2022-09-07T08:06:26.076Z,106.88
2022-09-07T08:07:25.999Z,106.88
2022-09-07T08:08:25.932Z,106.88
2022-09-07T08:09:25.860Z,106.88
2022-09-07T08:10:25.779Z,112.50
2022-09-07T08:11:25.705Z,106.88
2022-09-07T08:12:29.660Z,106.88
2022-09-07T08:13:25.657Z,112.50
2022-09-07T08:14:25.490Z,112.50
2022-09-07T08:15:25.406Z,112.50
2022-09-07T08:16:25.380Z,135.00
2022-09-07T08:17:25.259Z,118.13
2022-09-07T08:18:25.185Z,112.50
2022-09-07T08:19:25.116Z,112.50
2022-09-07T08:20:25.042Z,112.50
2022-09-07T08:21:24.969Z,118.13
2022-09-07T08:22:24.915Z,118.13
2022-09-07T08:23:24.819Z,118.13
2022-09-07T08:24:24.753Z,118.13
2022-09-07T08:25:24.669Z,118.13
2022-09-07T08:26:24.597Z,118.13
2022-09-07T08:27:24.527Z,123.75
2022-09-07T08:28:24.445Z,123.75
2022-09-07T08:29:24.378Z,123.75
2022-09-07T08:30:24.298Z,123.75
2022-09-07T08:31:24.285Z,123.75
2022-09-07T08:32:24.152Z,123.75
2022-09-07T08:33:24.083Z,123.75
2022-09-07T08:34:24.010Z,123.75
2022-09-07T08:35:23.933Z,123.75
2022-09-07T08:36:23.857Z,123.75
2022-09-07T08:37:23.795Z,123.75
2022-09-07T08:38:23.719Z,123.75
2022-09-07T08:39:23.638Z,123.75
2022-09-07T08:40:23.565Z,123.75
2022-09-07T08:41:23.494Z,123.75
2022-09-07T08:42:23.420Z,129.38
2022-09-07T08:43:23.345Z,135.00
2022-09-07T08:44:23.274Z,151.88
2022-09-07T08:45:23.196Z,151.88
2022-09-07T08:46:23.193Z,151.88
2022-09-07T08:47:23.051Z,151.88
2022-09-07T08:48:22.982Z,146.25
2022-09-07T08:49:22.902Z,140.63
2022-09-07T08:50:22.833Z,140.63
2022-09-07T08:51:24.452Z,140.63
2022-09-07T08:52:22.681Z,146.25
2022-09-07T08:53:22.616Z,151.88
2022-09-07T08:54:22.539Z,168.75
2022-09-07T08:55:22.467Z,180.00
2022-09-07T08:56:22.392Z,168.75
2022-09-07T08:57:22.316Z,180.00
2022-09-07T08:58:47.750Z,168.75
2022-09-07T08:59:22.172Z,163.13
2022-09-07T09:00:22.102Z,168.75
2022-09-07T09:01:37.633Z,163.13
2022-09-07T09:02:31.916Z,163.13
2022-09-07T09:03:30.000Z,157.50
2022-09-07T09:04:23.168Z,151.88
2022-09-07T09:05:21.900Z,151.88
2022-09-07T09:06:21.733Z,151.88
2022-09-07T09:07:21.587Z,151.88
2022-09-07T09:08:21.513Z,157.50
2022-09-07T09:09:21.445Z,157.50
2022-09-07T09:10:21.373Z,157.50
2022-09-07T09:11:21.295Z,157.50
2022-09-07T09:12:21.227Z,151.88
2022-09-07T09:13:21.150Z,151.88
2022-09-07T09:14:21.134Z,151.88
2022-09-07T09:15:21.007Z,146.25
2022-09-07T09:16:20.990Z,146.25
2022-09-07T09:17:20.857Z,151.88
2022-09-07T09:18:20.786Z,157.50
2022-09-07T09:19:20.707Z,157.50
2022-09-07T09:20:20.636Z,157.50
2022-09-07T09:21:20.565Z,163.13
2022-09-07T09:22:20.498Z,163.13
2022-09-07T09:23:20.440Z,151.88
2022-09-07T09:24:20.351Z,146.25
2022-09-07T09:25:20.278Z,135.00
2022-09-07T09:26:20.209Z,129.38
2022-09-07T09:27:20.133Z,129.38
2022-09-07T09:28:20.056Z,129.38
2022-09-07T09:29:19.988Z,123.75
2022-09-07T09:30:19.911Z,123.75
2022-09-07T09:31:19.893Z,112.50
2022-09-07T09:32:19.769Z,112.50
2022-09-07T09:33:19.696Z,112.50
2022-09-07T09:34:23.656Z,112.50
2022-09-07T09:35:19.545Z,112.50
2022-09-07T09:36:19.481Z,118.13
2022-09-07T09:37:19.449Z,129.38
2022-09-07T09:38:19.340Z,129.38
2022-09-07T09:39:19.258Z,135.00
2022-09-07T09:40:19.278Z,140.63
2022-09-07T09:41:19.118Z,140.63
2022-09-07T09:42:19.044Z,140.63
2022-09-07T09:43:18.971Z,146.25
2022-09-07T09:44:18.896Z,146.25
2022-09-07T09:45:18.859Z,157.50
2022-09-07T09:46:18.962Z,191.25
2022-09-07T09:47:34.187Z,185.63
2022-09-07T09:48:18.657Z,174.38
2022-09-07T09:49:18.535Z,163.13
2022-09-07T09:52:28.831Z,140.63
2022-09-07T09:52:41.725Z,123.75
2022-09-07T09:53:18.245Z,112.50
2022-09-07T09:54:18.182Z,112.50
2022-09-07T09:55:33.771Z,112.50
2022-09-07T09:56:18.026Z,112.50
2022-09-07T09:57:17.954Z,123.75
2022-09-07T10:00:28.040Z,123.75
2022-09-07T10:01:22.006Z,123.75
2022-09-07T10:04:18.407Z,146.25
2022-09-07T10:05:17.377Z,135.00
2022-09-07T10:06:17.311Z,129.38
2022-09-07T10:07:17.294Z,129.38
2022-09-07T10:08:17.154Z,118.13
2022-09-07T10:09:17.083Z,112.50
2022-09-07T10:10:17.013Z,106.88
2022-09-07T10:11:16.939Z,118.13
2022-09-07T10:12:16.867Z,123.75
2022-09-07T10:13:16.794Z,123.75
2022-09-07T10:14:16.719Z,135.00
2022-09-07T10:15:16.645Z,140.63
2022-09-07T10:16:16.617Z,129.38
2022-09-07T10:17:16.506Z,129.38
2022-09-07T10:18:16.434Z,123.75
2022-09-07T10:19:16.389Z,123.75
2022-09-07T10:20:16.288Z,123.75
2022-09-07T10:21:16.213Z,123.75
2022-09-07T10:22:16.142Z,123.75
2022-09-07T10:23:16.068Z,123.75
2022-09-07T10:24:15.998Z,118.13
2022-09-07T10:25:15.922Z,118.13
2022-09-07T10:26:15.874Z,118.13
2022-09-07T10:27:15.804Z,118.13
2022-09-07T10:28:15.723Z,118.13
2022-09-07T10:29:16.194Z,112.50
2022-09-07T10:30:15.564Z,101.25
2022-09-07T10:31:15.757Z,123.75
2022-09-07T10:32:15.416Z,123.75
2022-09-07T10:33:15.348Z,129.38
2022-09-07T10:34:30.743Z,123.75
2022-09-07T10:35:15.197Z,129.38
2022-09-07T10:36:15.132Z,129.38
2022-09-07T10:37:15.050Z,129.38
2022-09-07T10:38:15.227Z,135.00
2022-09-07T10:39:14.906Z,135.00
2022-09-07T10:40:16.261Z,140.63
2022-09-07T10:41:14.768Z,140.63
2022-09-07T10:42:14.695Z,146.25
2022-09-07T10:43:22.307Z,151.88
2022-09-07T10:44:14.559Z,146.25
2022-09-07T10:45:14.539Z,140.63
2022-09-07T10:46:14.695Z,140.63
2022-09-07T10:47:16.783Z,140.63
2022-09-07T10:48:14.259Z,146.25
2022-09-07T10:49:14.194Z,140.63
2022-09-07T10:50:29.462Z,140.63
2022-09-07T10:51:14.570Z,146.25
2022-09-07T10:52:13.984Z,146.25
2022-09-07T10:53:39.687Z,140.63
2022-09-07T10:54:30.410Z,151.88
2022-09-07T10:55:13.757Z,151.88
2022-09-07T10:56:13.682Z,151.88
2022-09-07T10:57:13.620Z,151.88
2022-09-07T10:58:13.538Z,151.88
2022-09-07T10:59:13.483Z,151.88
2022-09-07T11:00:13.493Z,163.13
2022-09-07T11:01:13.393Z,174.38
2022-09-07T11:02:13.281Z,180.00
2022-09-07T11:03:28.613Z,180.00
2022-09-07T11:04:13.141Z,174.38
2022-09-07T11:05:13.035Z,180.00
2022-09-07T11:06:12.967Z,185.63
2022-09-07T11:07:15.606Z,180.00
2022-09-07T11:08:12.830Z,185.63
2022-09-07T11:09:17.270Z,191.25
2022-09-07T11:10:12.696Z,191.25
2022-09-07T11:11:12.606Z,202.50
2022-09-07T11:12:12.538Z,219.38
2022-09-07T11:13:12.464Z,241.88
2022-09-07T11:14:13.746Z,247.50
2022-09-07T11:15:12.326Z,236.25
2022-09-07T11:16:50.397Z,208.13
2022-09-07T11:17:12.180Z,213.75
2022-09-07T11:18:12.110Z,202.50
2022-09-07T11:20:11.965Z,208.13
2022-09-07T11:21:12.249Z,208.13
2022-09-07T11:22:11.825Z,202.50
2022-09-07T11:23:11.799Z,202.50
2022-09-07T11:24:11.679Z,208.13
2022-09-07T11:26:11.538Z,219.38
2022-09-07T11:27:11.483Z,219.38
2022-09-07T11:28:11.398Z,236.25
2022-09-07T11:30:11.257Z,236.25
2022-09-07T11:31:11.227Z,236.25
2022-09-07T11:32:11.114Z,236.25
2022-09-07T11:33:11.049Z,230.63
2022-09-07T11:34:26.256Z,236.25
2022-09-07T11:35:10.898Z,230.63
2022-09-07T11:36:12.369Z,236.25
2022-09-07T11:37:10.761Z,247.50
2022-09-07T11:38:10.689Z,236.25
2022-09-07T11:39:10.620Z,236.25
2022-09-07T11:40:10.589Z,241.88
2022-09-07T11:41:10.479Z,247.50
2022-09-07T11:43:11.598Z,247.50
2022-09-07T11:44:10.264Z,270.00
2022-09-07T11:45:10.196Z,286.88
2022-09-07T11:46:10.142Z,292.50
2022-09-07T11:47:10.051Z,303.75
2022-09-07T11:48:09.984Z,326.25
2022-09-07T11:49:09.918Z,309.38
2022-09-07T11:50:09.845Z,320.63
2022-09-07T11:51:09.773Z,315.00
2022-09-07T11:52:09.704Z,309.38
2022-09-07T11:53:09.638Z,326.25
2022-09-07T11:54:09.563Z,326.25
2022-09-07T11:55:09.496Z,331.88
2022-09-07T11:56:09.427Z,337.50
2022-09-07T11:57:09.360Z,365.63
2022-09-07T11:58:09.284Z,365.63
2022-09-07T11:59:09.221Z,348.75
2022-09-07T12:00:09.145Z,247.50
2022-09-07T12:01:09.087Z,230.63
2022-09-07T12:02:09.113Z,241.88
2022-09-07T12:03:08.969Z,303.75
2022-09-07T12:04:13.252Z,309.38
2022-09-07T12:05:08.809Z,556.88
2022-09-07T12:06:08.733Z,708.75
2022-09-07T12:07:08.754Z,815.63
2022-09-07T12:08:08.599Z,1125.00
2022-09-07T12:09:08.523Z,1091.25
2022-09-07T12:10:08.459Z,1074.38
2022-09-07T12:11:08.382Z,1136.25
2022-09-07T12:12:08.326Z,2058.75
2022-09-07T12:13:08.248Z,1018.13
2022-09-07T12:14:08.182Z,2261.25
2022-09-07T12:15:08.116Z,1839.38
2022-09-07T12:16:08.111Z,1569.38
2022-09-07T12:17:07.974Z,1012.50
2022-09-07T12:18:07.913Z,804.38
2022-09-07T12:19:07.844Z,776.25
2022-09-07T12:20:07.774Z,849.38
2022-09-07T12:21:07.707Z,787.50
2022-09-07T12:22:07.661Z,933.75
2022-09-07T12:23:07.578Z,950.63
2022-09-07T12:24:07.513Z,984.38
2022-09-07T12:25:07.446Z,911.25
2022-09-07T12:26:07.376Z,978.75
2022-09-07T12:27:07.318Z,1029.38
2022-09-07T12:28:07.243Z,1170.00
2022-09-07T12:29:07.186Z,1192.50
2022-09-07T12:30:07.127Z,1282.50
2022-09-07T12:31:07.087Z,843.75
2022-09-07T12:32:53.518Z,1198.13
2022-09-07T12:33:06.974Z,1282.50
2022-09-07T12:34:06.869Z,1265.63
2022-09-07T12:35:06.794Z,1276.88
2022-09-07T12:36:06.737Z,956.25
2022-09-07T12:37:11.637Z,798.75
2022-09-07T12:38:06.612Z,849.38
2022-09-07T12:39:06.550Z,928.13
2022-09-07T12:40:06.536Z,1164.38
2022-09-07T12:41:06.418Z,3166.88
2022-09-07T12:43:09.899Z,3268.13
2022-09-07T12:44:06.230Z,3538.13
2022-09-07T12:45:06.167Z,708.75
2022-09-07T12:46:06.146Z,1681.88
2022-09-07T12:47:06.047Z,1440.00
2022-09-07T12:48:05.986Z,1383.75
2022-09-07T12:49:05.921Z,376.88
2022-09-07T12:50:05.865Z,1350.00
2022-09-07T12:51:05.804Z,1203.75
2022-09-07T12:52:15.268Z,1293.75
2022-09-07T12:53:05.680Z,1254.38
2022-09-07T12:54:05.688Z,1260.00
2022-09-07T12:55:26.504Z,1147.50
2022-09-07T12:56:20.967Z,1243.13
2022-09-07T12:57:34.751Z,798.75
2022-09-07T12:58:05.370Z,236.25
2022-09-07T12:59:05.312Z,219.38
2022-09-07T13:00:05.252Z,225.00
2022-09-07T13:01:05.527Z,281.25
2022-09-07T13:02:05.246Z,697.50
2022-09-07T13:03:05.360Z,871.88
2022-09-07T13:04:05.166Z,1361.25
2022-09-07T13:05:04.945Z,1355.63
2022-09-07T13:06:04.886Z,1327.50
2022-09-07T13:07:04.855Z,1288.13
2022-09-07T13:08:09.177Z,1305.00
2022-09-07T13:09:04.698Z,1254.38
2022-09-07T13:10:04.643Z,585.00
2022-09-07T13:11:04.583Z,247.50
2022-09-07T13:12:04.517Z,241.88
2022-09-07T13:13:04.457Z,247.50
2022-09-07T13:14:06.264Z,225.00
2022-09-07T13:15:05.566Z,213.75
2022-09-07T13:16:04.328Z,213.75